Terminal Aerodrome Forecast
Issued by NWS Wilmington, OH

Current Version | Previous Version | Graphics & Text | Print | Product List | Glossary On
Versions: 1 2 3 4 5 6 7 8 9 10 11 12 13 14 15 16 17 18 19
000
FTUS41 KILN 282300 RRA
TAFILN
TAF
KILN 282341Z 2900/2924 17008KT P6SM SCT150
     FM291200 19012KT P6SM BKN040
     FM291600 19013G22KT P6SM OVC025
     FM292200 20013KT 5SM -SHRA BR SCT008 OVC012=

USA.gov is the U.S. government's official web portal to all federal, state and local government web resources and services.